createdAt,value
2022-11-12T00:02:27.332Z,102765.97
2022-11-12T00:05:10.447Z,102759.19
2022-11-12T00:07:54.852Z,102764.31
2022-11-12T00:10:36.997Z,102758.34
2022-11-12T00:13:19.198Z,102752.16
2022-11-12T00:16:01.675Z,102753.91
2022-11-12T00:18:44.103Z,102759.31
2022-11-12T00:21:26.490Z,102755.81
2022-11-12T00:24:10.235Z,102757.75
2022-11-12T00:26:52.369Z,102762.34
2022-11-12T00:29:34.942Z,102754.28
2022-11-12T00:32:17.062Z,102763.31
2022-11-12T00:35:02.434Z,102759.94
2022-11-12T00:37:45.059Z,102753.03
2022-11-12T00:40:28.852Z,102756.78
2022-11-12T00:43:10.900Z,102764.72
2022-11-12T00:45:53.244Z,102761.94
2022-11-12T00:48:35.754Z,102764.59
2022-11-12T00:51:18.038Z,102763.81
2022-11-12T00:54:00.020Z,102763.13
2022-11-12T00:56:43.476Z,102758.78
2022-11-12T00:59:25.674Z,102760.47
2022-11-12T01:02:07.766Z,102759.19
2022-11-12T01:04:50.007Z,102764.63
2022-11-12T01:07:32.274Z,102770.94
2022-11-12T01:10:15.496Z,102769.44
2022-11-12T01:12:59.163Z,102759.25
2022-11-12T01:15:43.393Z,102759.25
2022-11-12T01:18:26.440Z,102759.97
2022-11-12T01:21:10.000Z,102753.78
2022-11-12T01:23:52.587Z,102754.72
2022-11-12T01:26:35.553Z,102753.69
2022-11-12T01:29:19.302Z,102761.06
2022-11-12T01:32:01.546Z,102758.13
2022-11-12T01:34:43.602Z,102761.13
2022-11-12T01:37:25.943Z,102761.97
2022-11-12T01:40:10.063Z,102762.91
2022-11-12T01:42:54.326Z,102772.72
2022-11-12T01:45:39.689Z,102768.25
2022-11-12T01:48:28.594Z,102770.97
2022-11-12T01:51:13.463Z,102769.63
2022-11-12T01:53:59.755Z,102779.09
2022-11-12T01:56:42.960Z,102773.75
2022-11-12T01:59:30.766Z,102765.75
2022-11-12T02:02:15.045Z,102765.97
2022-11-12T02:04:58.918Z,102778.56
2022-11-12T02:07:43.884Z,102772.16
2022-11-12T02:10:27.267Z,102774.09
2022-11-12T02:13:28.603Z,102771.63
2022-11-12T02:16:11.994Z,102774.16
2022-11-12T02:18:55.534Z,102772.44
2022-11-12T02:21:39.526Z,102777.59
2022-11-12T02:24:37.994Z,102782.06
2022-11-12T02:27:20.756Z,102778.50
2022-11-12T02:30:02.895Z,102785.69
2022-11-12T02:32:45.543Z,102780.38
2022-11-12T02:35:27.507Z,102786.44
2022-11-12T02:38:11.651Z,102780.38
2022-11-12T02:40:54.223Z,102782.34
2022-11-12T02:43:36.415Z,102786.44
2022-11-12T02:46:18.559Z,102785.44
2022-11-12T02:49:00.917Z,102793.41
2022-11-12T02:51:43.422Z,102793.47
2022-11-12T02:54:27.090Z,102792.47
2022-11-12T02:57:09.364Z,102802.63
2022-11-12T02:59:51.413Z,102799.81
2022-11-12T03:02:33.711Z,102804.13
2022-11-12T03:05:16.924Z,102803.13
2022-11-12T03:08:00.143Z,102809.22
2022-11-12T03:10:44.154Z,102798.75
2022-11-12T03:13:26.067Z,102808.31
2022-11-12T03:16:08.373Z,102812.06
2022-11-12T03:18:50.916Z,102813.03
2022-11-12T03:21:33.131Z,102814.72
2022-11-12T03:24:15.616Z,102815.47
2022-11-12T03:26:59.397Z,102816.53
2022-11-12T03:29:41.454Z,102821.16
2022-11-12T03:32:23.374Z,102818.34
2022-11-12T03:35:06.153Z,102823.72
2022-11-12T03:37:48.477Z,102818.41
2022-11-12T03:40:31.482Z,102823.69
2022-11-12T03:43:14.980Z,102819.25
2022-11-12T03:45:56.866Z,102816.59
2022-11-12T03:48:39.034Z,102821.22
2022-11-12T03:51:21.364Z,102811.00
2022-11-12T03:54:03.588Z,102820.78
2022-11-12T03:56:46.087Z,102823.28
2022-11-12T03:59:29.858Z,102816.28
2022-11-12T04:02:14.627Z,102819.22
2022-11-12T04:05:14.682Z,102821.03
2022-11-12T04:08:18.774Z,102812.94
2022-11-12T04:11:01.362Z,102821.94
2022-11-12T04:13:47.501Z,102824.66
2022-11-12T04:16:48.565Z,102830.06
2022-11-12T04:19:47.653Z,102825.84
2022-11-12T04:22:29.845Z,102830.31
2022-11-12T04:25:29.580Z,102827.75
2022-11-12T04:28:12.091Z,102830.22
2022-11-12T04:30:53.230Z,102833.72
2022-11-12T04:33:37.184Z,102831.97
2022-11-12T04:36:19.471Z,102840.16
2022-11-12T04:39:01.505Z,102835.72
2022-11-12T04:42:00.784Z,102831.50
2022-11-12T04:45:01.445Z,102834.19
2022-11-12T04:47:44.412Z,102843.00
2022-11-12T04:50:27.920Z,102845.03
2022-11-12T04:53:10.371Z,102846.81
2022-11-12T04:55:52.613Z,102855.84
2022-11-12T04:58:34.430Z,102855.19
2022-11-12T05:01:16.517Z,102853.13
2022-11-12T05:03:59.049Z,102857.69
2022-11-12T05:06:54.902Z,102853.38
2022-11-12T05:09:37.154Z,102856.03
2022-11-12T05:12:20.842Z,102850.69
2022-11-12T05:15:03.191Z,102857.00
2022-11-12T05:17:45.331Z,102859.63
2022-11-12T05:20:27.820Z,102864.19
2022-11-12T05:23:11.390Z,102855.47
2022-11-12T05:25:53.650Z,102859.91
2022-11-12T05:28:35.750Z,102859.91
2022-11-12T05:31:17.875Z,102856.44
2022-11-12T05:34:00.166Z,102856.28
2022-11-12T05:36:42.304Z,102858.16
2022-11-12T05:39:26.163Z,102867.03
2022-11-12T05:42:13.910Z,102870.59
2022-11-12T05:44:56.807Z,102869.81
2022-11-12T05:47:38.802Z,102861.03
2022-11-12T05:50:20.858Z,102866.28
2022-11-12T05:53:02.993Z,102859.28
2022-11-12T05:55:46.511Z,102862.94
2022-11-12T05:58:28.610Z,102856.63
2022-11-12T06:01:10.819Z,102866.38
2022-11-12T06:03:53.051Z,102870.88
2022-11-12T06:06:35.222Z,102868.28
2022-11-12T06:09:17.257Z,102872.91
2022-11-12T06:12:00.909Z,102868.38
2022-11-12T06:14:42.890Z,102868.56
2022-11-12T06:17:24.859Z,102882.66
2022-11-12T06:20:08.329Z,102866.91
2022-11-12T06:22:51.181Z,102880.94
2022-11-12T06:25:33.791Z,102878.25
2022-11-12T06:28:17.582Z,102885.44
2022-11-12T06:30:59.537Z,102889.81
2022-11-12T06:33:42.533Z,102886.38
2022-11-12T06:36:24.594Z,102880.88
2022-11-12T06:39:06.690Z,102901.41
2022-11-12T06:41:48.856Z,102902.19
2022-11-12T06:44:32.402Z,102903.25
2022-11-12T06:47:14.442Z,102908.53
2022-11-12T06:49:56.810Z,102911.97
2022-11-12T06:52:38.981Z,102918.09
2022-11-12T06:55:21.111Z,102913.66
2022-11-12T06:58:03.156Z,102913.72
2022-11-12T07:00:46.947Z,102918.91
2022-11-12T07:03:29.190Z,102922.41
2022-11-12T07:06:14.217Z,102919.78
2022-11-12T07:08:56.345Z,102921.44
2022-11-12T07:11:38.607Z,102930.34
2022-11-12T07:14:20.713Z,102931.91
2022-11-12T07:17:04.333Z,102918.66
2022-11-12T07:19:46.752Z,102930.03
2022-11-12T07:22:29.035Z,102931.75
2022-11-12T07:25:11.222Z,102932.44
2022-11-12T07:27:55.325Z,102933.25
2022-11-12T07:30:37.634Z,102933.81
2022-11-12T07:33:21.225Z,102931.94
2022-11-12T07:36:07.151Z,102938.91
2022-11-12T07:38:52.668Z,102937.94
2022-11-12T07:41:34.724Z,102929.66
2022-11-12T07:44:16.767Z,102931.03
2022-11-12T07:46:59.002Z,102944.72
2022-11-12T07:49:42.625Z,102945.28
2022-11-12T07:52:25.226Z,102946.75
2022-11-12T07:55:08.326Z,102942.78
2022-11-12T07:57:50.320Z,102935.31
2022-11-12T08:00:32.509Z,102941.84
2022-11-12T08:03:15.001Z,102953.06
2022-11-12T08:06:01.436Z,102951.75
2022-11-12T08:08:43.470Z,102937.53
2022-11-12T08:11:25.783Z,102947.50
2022-11-12T08:14:07.958Z,102954.16
2022-11-12T08:16:50.478Z,102939.00
2022-11-12T08:19:32.853Z,102945.75
2022-11-12T08:22:15.952Z,102951.53
2022-11-12T08:24:58.323Z,102951.84
2022-11-12T08:27:40.277Z,102950.28
2022-11-12T08:30:22.026Z,102945.88
2022-11-12T08:33:06.391Z,102935.75
2022-11-12T08:35:48.599Z,102942.81
2022-11-12T08:38:32.368Z,102944.03
2022-11-12T08:41:17.728Z,102936.22
2022-11-12T08:44:04.138Z,102932.75
2022-11-12T08:46:49.304Z,102926.53
2022-11-12T08:49:31.831Z,102930.56
2022-11-12T08:52:14.212Z,102936.81
2022-11-12T08:54:57.583Z,102926.38
2022-11-12T08:57:42.583Z,102925.16
2022-11-12T09:00:24.910Z,102931.13
2022-11-12T09:03:09.842Z,102939.63
2022-11-12T09:05:53.622Z,102931.56
2022-11-12T09:08:38.082Z,102932.03
2022-11-12T09:11:21.530Z,102932.28
2022-11-12T09:14:03.301Z,102924.38
2022-11-12T09:16:45.586Z,102929.41
2022-11-12T09:19:27.691Z,102927.75
2022-11-12T09:22:09.414Z,102926.06
2022-11-12T09:24:51.618Z,102926.19
2022-11-12T09:27:35.246Z,102934.31
2022-11-12T09:30:17.878Z,102937.78
2022-11-12T09:33:00.361Z,102948.72
2022-11-12T09:35:42.806Z,102950.44
2022-11-12T09:38:25.459Z,102936.34
2022-11-12T09:41:21.659Z,102935.50
2022-11-12T09:44:08.238Z,102937.31
2022-11-12T09:46:55.557Z,102944.25
2022-11-12T09:49:44.548Z,102933.09
2022-11-12T09:52:29.337Z,102933.41
2022-11-12T09:55:28.899Z,102938.09
2022-11-12T09:58:13.518Z,102954.88
2022-11-12T10:01:01.302Z,102949.00
2022-11-12T10:03:55.066Z,102929.75
2022-11-12T10:06:47.438Z,102927.16
2022-11-12T10:09:36.665Z,102946.31
2022-11-12T10:12:32.761Z,102947.84
2022-11-12T10:15:57.936Z,102922.38
2022-11-12T10:18:56.023Z,102943.47
2022-11-12T10:21:46.379Z,102948.38
2022-11-12T10:24:35.609Z,102920.50
2022-11-12T10:27:22.321Z,102931.41
2022-11-12T10:30:08.290Z,102947.81
2022-11-12T10:32:52.050Z,102938.47
2022-11-12T10:35:38.719Z,102924.81
2022-11-12T10:38:27.974Z,102943.06
2022-11-12T10:41:22.635Z,102936.50
2022-11-12T10:44:07.563Z,102927.66
2022-11-12T10:46:49.600Z,102937.31
2022-11-12T10:49:31.737Z,102941.41
2022-11-12T10:52:26.067Z,102927.91
2022-11-12T10:55:18.007Z,102936.06
2022-11-12T10:58:21.691Z,102935.19
2022-11-12T11:01:07.355Z,102928.25
2022-11-12T11:03:57.307Z,102932.75
2022-11-12T11:06:39.769Z,102917.28
2022-11-12T11:09:27.556Z,102922.97
2022-11-12T11:12:24.942Z,102912.66
2022-11-12T11:15:20.050Z,102909.38
2022-11-12T11:18:02.793Z,102903.56
2022-11-12T11:20:53.226Z,102905.09
2022-11-12T11:23:43.395Z,102907.66
2022-11-12T11:26:38.451Z,102899.94
2022-11-12T11:29:47.559Z,102891.47
2022-11-12T11:33:03.774Z,102910.53
2022-11-12T11:36:00.133Z,102899.66
2022-11-12T11:38:54.103Z,102891.81
2022-11-12T11:41:56.014Z,102888.06
2022-11-12T11:44:46.526Z,102905.63
2022-11-12T11:47:59.861Z,102891.81
2022-11-12T11:50:49.511Z,102900.03
2022-11-12T11:53:42.650Z,102893.75
2022-11-12T11:56:29.951Z,102895.66
2022-11-12T11:59:31.890Z,102901.47
2022-11-12T12:02:44.772Z,102898.56
2022-11-12T12:05:41.020Z,102891.81
2022-11-12T12:08:37.633Z,102884.66
2022-11-12T12:11:29.401Z,102891.53
2022-11-12T12:14:31.805Z,102891.03
2022-11-12T12:17:31.923Z,102886.00
2022-11-12T12:20:22.616Z,102886.03
2022-11-12T12:23:12.901Z,102886.94
2022-11-12T12:26:00.551Z,102879.97
2022-11-12T12:28:49.464Z,102891.13
2022-11-12T12:31:40.221Z,102895.41
2022-11-12T12:34:27.744Z,102877.38
2022-11-12T12:37:22.935Z,102877.63
2022-11-12T12:40:18.763Z,102874.63
2022-11-12T12:43:09.587Z,102859.25
2022-11-12T12:45:51.892Z,102866.03
2022-11-12T12:48:40.837Z,102868.06
2022-11-12T12:51:24.338Z,102871.16
2022-11-12T12:54:06.895Z,102857.47
2022-11-12T12:56:49.924Z,102861.88
2022-11-12T12:59:32.559Z,102851.66
2022-11-12T13:02:22.621Z,102848.34
2022-11-12T13:05:06.675Z,102852.41
2022-11-12T13:07:50.155Z,102842.19
2022-11-12T13:10:54.842Z,102846.63
2022-11-12T13:13:37.932Z,102850.09
2022-11-12T13:16:59.355Z,102840.44
2022-11-12T13:19:47.855Z,102847.19
2022-11-12T13:22:51.985Z,102843.63
2022-11-12T13:25:34.619Z,102844.25
2022-11-12T13:28:16.369Z,102853.88
2022-11-12T13:31:04.954Z,102855.31
2022-11-12T13:33:47.118Z,102840.25
2022-11-12T13:36:30.630Z,102847.69
2022-11-12T13:39:18.816Z,102842.09
2022-11-12T13:42:18.572Z,102842.94
2022-11-12T13:45:02.737Z,102844.50
2022-11-12T13:47:45.203Z,102848.00
2022-11-12T13:50:27.976Z,102859.66
2022-11-12T13:53:11.460Z,102848.97
2022-11-12T13:55:56.566Z,102859.94
2022-11-12T13:58:40.827Z,102862.56
2022-11-12T14:01:25.281Z,102859.66
2022-11-12T14:04:08.630Z,102860.25
2022-11-12T14:06:53.520Z,102853.03
2022-11-12T14:09:58.202Z,102843.25
2022-11-12T14:13:16.232Z,102850.38
2022-11-12T14:16:19.101Z,102843.16
2022-11-12T14:19:56.630Z,102850.28
2022-11-12T14:22:42.530Z,102840.47
2022-11-12T14:25:27.282Z,102838.31
2022-11-12T14:30:58.376Z,102826.34
2022-11-12T14:33:40.657Z,102833.84
2022-11-12T14:36:23.615Z,102833.78
2022-11-12T14:39:06.247Z,102829.31
2022-11-12T14:41:49.328Z,102827.03
2022-11-12T14:44:37.402Z,102830.69
2022-11-12T14:47:21.218Z,102832.72
2022-11-12T14:50:04.288Z,102824.09
2022-11-12T14:52:50.695Z,102827.16
2022-11-12T14:55:36.206Z,102828.66
2022-11-12T14:58:20.379Z,102835.06
2022-11-12T15:02:03.825Z,102836.72
2022-11-12T15:04:28.190Z,102827.59
2022-11-12T15:07:27.014Z,102826.69
2022-11-12T15:10:33.298Z,102831.00
2022-11-12T15:13:20.325Z,102820.75
2022-11-12T15:16:08.242Z,102823.97
2022-11-12T15:19:09.338Z,102822.72
2022-11-12T15:21:55.022Z,102830.50
2022-11-12T15:24:39.152Z,102827.56
2022-11-12T15:27:39.206Z,102831.31
2022-11-12T15:30:24.899Z,102830.59
2022-11-12T15:33:18.864Z,102826.69
2022-11-12T15:36:02.298Z,102825.41
2022-11-12T15:38:50.484Z,102826.72
2022-11-12T15:41:35.479Z,102832.56
2022-11-12T15:44:17.446Z,102834.00
2022-11-12T15:46:59.996Z,102837.13
2022-11-12T15:49:52.802Z,102838.53
2022-11-12T15:52:34.734Z,102840.84
2022-11-12T15:55:19.338Z,102841.84
2022-11-12T15:58:01.714Z,102850.53
2022-11-12T16:00:44.175Z,102853.78
2022-11-12T16:03:27.275Z,102847.78
2022-11-12T16:06:12.410Z,102844.56
2022-11-12T16:08:54.545Z,102846.69
2022-11-12T16:11:38.366Z,102846.97
2022-11-12T16:14:24.626Z,102840.25
2022-11-12T16:17:12.231Z,102839.84
2022-11-12T16:19:54.345Z,102845.41
2022-11-12T16:22:36.839Z,102845.84
2022-11-12T16:25:19.650Z,102847.84
2022-11-12T16:28:05.115Z,102839.13
2022-11-12T16:30:48.556Z,102836.44
2022-11-12T16:33:30.972Z,102844.13
2022-11-12T16:36:16.227Z,102846.94
2022-11-12T16:38:58.766Z,102851.03
2022-11-12T16:41:40.718Z,102851.31
2022-11-12T16:44:24.264Z,102852.19
2022-11-12T16:47:07.436Z,102847.19
2022-11-12T16:49:49.322Z,102845.06
2022-11-12T16:52:31.859Z,102844.31
2022-11-12T16:55:14.384Z,102844.38
2022-11-12T16:57:56.207Z,102840.13
2022-11-12T17:00:40.397Z,102839.47
2022-11-12T17:03:22.524Z,102840.63
2022-11-12T17:06:05.041Z,102833.84
2022-11-12T17:08:48.287Z,102831.31
2022-11-12T17:11:30.582Z,102834.16
2022-11-12T17:14:12.642Z,102844.97
2022-11-12T17:16:56.473Z,102838.09
2022-11-12T17:19:39.043Z,102833.00
2022-11-12T17:22:21.650Z,102835.84
2022-11-12T17:25:03.679Z,102840.34
2022-11-12T17:27:45.807Z,102835.34
2022-11-12T17:30:28.043Z,102845.34
2022-11-12T17:33:12.004Z,102842.97
2022-11-12T17:35:54.191Z,102843.13
2022-11-12T17:38:36.498Z,102841.44
2022-11-12T17:41:18.747Z,102841.31
2022-11-12T17:44:02.533Z,102843.44
2022-11-12T17:46:45.380Z,102836.47
2022-11-12T17:49:29.204Z,102843.81
2022-11-12T17:52:11.675Z,102836.16
2022-11-12T17:54:54.323Z,102845.94
2022-11-12T17:57:36.301Z,102851.44
2022-11-12T18:00:19.817Z,102847.19
2022-11-12T18:03:01.529Z,102848.25
2022-11-12T18:05:44.982Z,102849.16
2022-11-12T18:08:28.507Z,102849.16
2022-11-12T18:11:11.750Z,102855.84
2022-11-12T18:13:54.636Z,102847.91
2022-11-12T18:16:38.286Z,102851.50
2022-11-12T18:19:22.204Z,102844.44
2022-11-12T18:22:07.535Z,102847.53
2022-11-12T18:24:53.397Z,102848.44
2022-11-12T18:27:37.369Z,102848.63
2022-11-12T18:30:21.594Z,102841.53
2022-11-12T18:33:04.366Z,102838.88
2022-11-12T18:35:48.078Z,102840.84
2022-11-12T18:38:36.310Z,102842.59
2022-11-12T18:41:21.166Z,102845.66
2022-11-12T18:44:03.606Z,102851.94
2022-11-12T18:46:45.799Z,102845.81
2022-11-12T18:49:28.313Z,102850.31
2022-11-12T18:52:10.694Z,102852.84
2022-11-12T18:54:54.219Z,102853.31
2022-11-12T18:57:36.447Z,102854.28
2022-11-12T19:00:19.552Z,102854.31
2022-11-12T19:03:01.531Z,102854.47
2022-11-12T19:05:44.030Z,102850.13
2022-11-12T19:08:26.574Z,102856.50
2022-11-12T19:11:12.920Z,102861.84
2022-11-12T19:13:56.685Z,102862.88
2022-11-12T19:16:42.445Z,102859.28
2022-11-12T19:19:24.730Z,102858.53
2022-11-12T19:22:07.148Z,102852.47
2022-11-12T19:24:49.483Z,102856.06
2022-11-12T19:27:33.395Z,102848.09
2022-11-12T19:30:15.886Z,102852.56
2022-11-12T19:32:58.091Z,102855.25
2022-11-12T19:35:41.477Z,102861.69
2022-11-12T19:38:23.719Z,102853.00
2022-11-12T19:41:06.845Z,102855.75
2022-11-12T19:43:50.927Z,102856.72
2022-11-12T19:46:34.167Z,102858.59
2022-11-12T19:49:16.420Z,102862.91
2022-11-12T19:51:59.063Z,102856.66
2022-11-12T19:54:40.996Z,102864.78
2022-11-12T19:57:23.660Z,102862.00
2022-11-12T20:00:10.872Z,102856.59
2022-11-12T20:02:53.141Z,102859.25
2022-11-12T20:05:35.342Z,102854.09
2022-11-12T20:08:17.252Z,102846.13
2022-11-12T20:10:59.959Z,102859.38
2022-11-12T20:13:42.715Z,102856.59
2022-11-12T20:16:26.491Z,102854.47
2022-11-12T20:19:08.647Z,102853.50
2022-11-12T20:21:50.722Z,102854.28
2022-11-12T20:24:32.626Z,102847.06
2022-11-12T20:27:15.198Z,102848.63
2022-11-12T20:29:58.864Z,102859.19
2022-11-12T20:32:43.104Z,102854.50
2022-11-12T20:35:25.613Z,102853.69
2022-11-12T20:38:08.126Z,102855.34
2022-11-12T20:40:50.196Z,102851.88
2022-11-12T20:43:32.864Z,102850.00
2022-11-12T20:46:15.605Z,102855.09
2022-11-12T20:48:59.283Z,102858.41
2022-11-12T20:51:41.236Z,102851.63
2022-11-12T20:54:23.327Z,102852.13
2022-11-12T20:57:05.829Z,102851.94
2022-11-12T20:59:51.204Z,102844.56
2022-11-12T21:02:33.966Z,102845.66
2022-11-12T21:05:17.935Z,102840.00
2022-11-12T21:08:00.090Z,102835.91
2022-11-12T21:10:42.439Z,102835.06
2022-11-12T21:13:24.811Z,102840.47
2022-11-12T21:16:08.733Z,102838.59
2022-11-12T21:18:50.604Z,102847.84
2022-11-12T21:21:34.463Z,102848.25
2022-11-12T21:24:16.405Z,102843.00
2022-11-12T21:26:58.138Z,102827.16
2022-11-12T21:29:40.209Z,102837.94
2022-11-12T21:32:22.749Z,102840.56
2022-11-12T21:35:05.069Z,102830.19
2022-11-12T21:37:48.562Z,102829.19
2022-11-12T21:40:30.759Z,102826.69
2022-11-12T21:43:12.841Z,102829.50
2022-11-12T21:45:55.064Z,102822.31
2022-11-12T21:48:37.990Z,102830.56
2022-11-12T21:51:23.098Z,102817.38
2022-11-12T21:54:08.965Z,102819.91
2022-11-12T21:56:51.266Z,102815.88
2022-11-12T21:59:33.603Z,102811.56
2022-11-12T22:02:16.128Z,102807.25
2022-11-12T22:04:58.282Z,102809.25
2022-11-12T22:07:40.934Z,102812.94
2022-11-12T22:10:24.519Z,102805.69
2022-11-12T22:13:26.084Z,102808.28
2022-11-12T22:16:15.266Z,102802.34
2022-11-12T22:18:59.354Z,102798.84
2022-11-12T22:21:42.013Z,102800.53
2022-11-12T22:24:24.127Z,102800.91
2022-11-12T22:27:08.018Z,102804.53
2022-11-12T22:29:50.042Z,102793.13
2022-11-12T22:32:33.074Z,102800.28
2022-11-12T22:35:15.341Z,102795.31
2022-11-12T22:37:57.476Z,102795.22
2022-11-12T22:40:39.711Z,102796.03
2022-11-12T22:43:24.804Z,102795.97
2022-11-12T22:46:09.363Z,102784.03
2022-11-12T22:48:52.006Z,102786.34
2022-11-12T22:51:35.633Z,102790.13
2022-11-12T22:54:18.207Z,102788.38
2022-11-12T22:57:00.456Z,102778.28
2022-11-12T22:59:43.846Z,102779.00
2022-11-12T23:02:26.262Z,102779.13
2022-11-12T23:05:09.171Z,102778.03
2022-11-12T23:07:51.638Z,102773.81
2022-11-12T23:10:35.196Z,102782.53
2022-11-12T23:13:17.512Z,102783.06
2022-11-12T23:16:01.848Z,102777.50
2022-11-12T23:18:44.229Z,102771.28
2022-11-12T23:21:30.517Z,102777.25
2022-11-12T23:24:12.539Z,102783.19
2022-11-12T23:26:54.675Z,102785.66
2022-11-12T23:29:37.374Z,102777.38
2022-11-12T23:32:20.974Z,102781.78
2022-11-12T23:35:02.905Z,102775.41
2022-11-12T23:37:44.974Z,102767.06
2022-11-12T23:40:30.945Z,102767.56
2022-11-12T23:43:13.614Z,102762.03
2022-11-12T23:45:56.125Z,102763.84
2022-11-12T23:48:39.970Z,102755.34
2022-11-12T23:51:23.827Z,102762.28
2022-11-12T23:54:06.462Z,102754.75
2022-11-12T23:56:48.368Z,102763.31
2022-11-12T23:59:30.798Z,102757.97
